Time,TemperatureF,DewpointF,PressureIn,WindDirection,WindDirectionDegrees,WindSpeedMPH,WindSpeedGustMPH,Humidity,HourlyPrecipIn,Conditions,Clouds,dailyrainin,SoftwareType,DateUTC
2013-02-09 00:01:00,31.4,29.4,30.20,ESE,109,3.0,5.0,92,0.00,,,0.00,LWC V1.12 B30,2013-02-08 23:01:00,
2013-02-09 00:06:00,31.3,29.3,30.20,ESE,105,4.0,4.0,92,0.00,,,0.00,LWC V1.12 B30,2013-02-08 23:06:00,
2013-02-09 00:11:00,31.3,29.3,30.20,ESE,110,2.0,5.0,92,0.00,,,0.00,LWC V1.12 B30,2013-02-08 23:11:00,
2013-02-09 00:16:00,31.2,29.2,30.20,ESE,107,2.0,4.0,92,0.00,,,0.00,LWC V1.12 B30,2013-02-08 23:16:00,
2013-02-09 00:21:00,31.1,29.1,30.20,ESE,107,3.0,4.0,92,0.00,,,0.00,LWC V1.12 B30,2013-02-08 23:21:00,
2013-02-09 00:26:00,31.1,29.1,30.20,ESE,119,4.0,5.0,92,0.00,,,0.00,LWC V1.12 B30,2013-02-08 23:26:00,
2013-02-09 00:31:00,31.0,29.0,30.20,ESE,106,3.0,5.0,92,0.00,,,0.00,LWC V1.12 B30,2013-02-08 23:31:00,
2013-02-09 00:36:00,31.0,29.0,30.20,ESE,105,4.0,6.0,92,0.00,,,0.00,LWC V1.12 B30,2013-02-08 23:36:00,
2013-02-09 00:41:00,31.0,29.0,30.20,ESE,107,2.0,5.0,92,0.00,,,0.00,LWC V1.12 B30,2013-02-08 23:41:00,
2013-02-09 00:46:00,31.0,29.0,30.20,ESE,105,3.0,5.0,92,0.00,,,0.00,LWC V1.12 B30,2013-02-08 23:46:00,
2013-02-09 00:51:00,30.9,28.9,30.20,ESE,104,4.0,4.0,92,0.00,,,0.00,LWC V1.12 B30,2013-02-08 23:51:00,
2013-02-09 00:56:00,30.9,29.1,30.20,ESE,107,4.0,5.0,93,0.00,,,0.00,LWC V1.12 B30,2013-02-08 23:56:00,
2013-02-09 01:01:00,31.0,29.2,30.20,ESE,105,4.0,5.0,93,0.00,,,0.00,LWC V1.12 B30,2013-02-09 00:01:00,
2013-02-09 01:06:00,30.9,29.1,30.20,ESE,113,4.0,5.0,93,0.00,,,0.00,LWC V1.12 B30,2013-02-09 00:06:00,
2013-02-09 01:11:00,30.9,29.1,30.20,ESE,119,3.0,6.0,93,0.00,,,0.00,LWC V1.12 B30,2013-02-09 00:11:00,
2013-02-09 01:16:00,30.9,29.1,30.21,ESE,116,3.0,5.0,93,0.00,,,0.00,LWC V1.12 B30,2013-02-09 00:16:00,
2013-02-09 01:21:00,30.9,29.1,30.21,ESE,112,2.0,4.0,93,0.00,,,0.00,LWC V1.12 B30,2013-02-09 00:21:00,
2013-02-09 01:26:00,30.9,29.1,30.21,ESE,107,3.0,4.0,93,0.00,,,0.00,LWC V1.12 B30,2013-02-09 00:26:00,
2013-02-09 01:31:00,31.0,29.2,30.21,East,96,3.0,4.0,93,0.00,,,0.00,LWC V1.12 B30,2013-02-09 00:31:00,
2013-02-09 01:36:00,31.0,29.2,30.20,ESE,106,3.0,6.0,93,0.00,,,0.00,LWC V1.12 B30,2013-02-09 00:36:00,
2013-02-09 01:41:00,31.0,29.2,30.21,ESE,103,1.0,2.0,93,0.00,,,0.00,LWC V1.12 B30,2013-02-09 00:41:00,
2013-02-09 01:46:00,30.9,29.1,30.21,ESE,105,2.0,3.0,93,0.00,,,0.00,LWC V1.12 B30,2013-02-09 00:46:00,
2013-02-09 01:51:00,30.9,29.1,30.21,ESE,106,2.0,4.0,93,0.00,,,0.00,LWC V1.12 B30,2013-02-09 00:51:00,
2013-02-09 01:56:00,30.9,29.1,30.21,ESE,107,2.0,3.0,93,0.00,,,0.00,LWC V1.12 B30,2013-02-09 00:56:00,
2013-02-09 02:01:00,31.0,29.2,30.21,ESE,107,1.0,2.0,93,0.00,,,0.00,LWC V1.12 B30,2013-02-09 01:01:00,
2013-02-09 02:05:00,31.1,29.3,30.21,ESE,109,2.0,3.0,93,0.00,,,0.00,LWC V1.12 B30,2013-02-09 01:05:00,
2013-02-09 02:10:00,31.2,29.4,30.21,ESE,109,0.0,1.0,93,0.00,,,0.00,LWC V1.12 B30,2013-02-09 01:10:00,
2013-02-09 02:15:00,31.3,29.5,30.20,ESE,109,5.0,6.0,93,0.00,,,0.00,LWC V1.12 B30,2013-02-09 01:15:00,
2013-02-09 02:20:00,31.4,29.4,30.21,ESE,102,2.0,4.0,92,0.00,,,0.00,LWC V1.12 B30,2013-02-09 01:20:00,
2013-02-09 02:25:00,31.5,29.4,30.21,East,99,2.0,5.0,92,0.00,,,0.00,LWC V1.12 B30,2013-02-09 01:25:00,
2013-02-09 02:30:00,31.6,29.5,30.21,ESE,106,4.0,4.0,92,0.00,,,0.00,LWC V1.12 B30,2013-02-09 01:30:00,
2013-02-09 02:35:00,31.7,29.6,30.21,East,101,3.0,5.0,92,0.00,,,0.00,LWC V1.12 B30,2013-02-09 01:35:00,
2013-02-09 02:40:00,31.8,29.7,30.21,ESE,105,4.0,5.0,92,0.00,,,0.00,LWC V1.12 B30,2013-02-09 01:40:00,
2013-02-09 02:45:00,31.9,29.8,30.21,ESE,103,2.0,3.0,92,0.00,,,0.00,LWC V1.12 B30,2013-02-09 01:45:00,
2013-02-09 02:50:00,32.0,29.9,30.21,ESE,102,3.0,4.0,92,0.00,,,0.00,LWC V1.12 B30,2013-02-09 01:50:00,
2013-02-09 02:55:00,32.0,29.9,30.21,ESE,103,2.0,4.0,92,0.00,,,0.00,LWC V1.12 B30,2013-02-09 01:55:00,
2013-02-09 03:00:00,32.1,30.0,30.21,East,100,1.0,2.0,92,0.00,,,0.00,LWC V1.12 B30,2013-02-09 02:00:00,
2013-02-09 03:05:00,32.2,29.9,30.21,East,96,1.0,3.0,91,0.00,,,0.00,LWC V1.12 B30,2013-02-09 02:05:00,
2013-02-09 03:10:00,32.2,29.9,30.21,East,97,1.0,3.0,91,0.00,,,0.00,LWC V1.12 B30,2013-02-09 02:10:00,
2013-02-09 03:15:00,32.2,29.9,30.20,East,96,1.0,2.0,91,0.00,,,0.00,LWC V1.12 B30,2013-02-09 02:15:00,
2013-02-09 03:20:00,32.2,29.9,30.21,East,92,0.0,3.0,91,0.00,,,0.00,LWC V1.12 B30,2013-02-09 02:20:00,
2013-02-09 03:25:00,32.2,29.9,30.21,East,88,1.0,2.0,91,0.00,,,0.00,LWC V1.12 B30,2013-02-09 02:25:00,
2013-02-09 03:30:00,32.2,29.6,30.21,East,96,2.0,4.0,90,0.00,,,0.00,LWC V1.12 B30,2013-02-09 02:30:00,
2013-02-09 03:35:00,32.3,29.7,30.20,ESE,103,2.0,3.0,90,0.00,,,0.00,LWC V1.12 B30,2013-02-09 02:35:00,
2013-02-09 03:40:00,32.3,29.7,30.20,ESE,104,1.0,3.0,90,0.00,,,0.00,LWC V1.12 B30,2013-02-09 02:40:00,
2013-02-09 03:45:00,32.4,29.8,30.20,ESE,105,3.0,4.0,90,0.00,,,0.00,LWC V1.12 B30,2013-02-09 02:45:00,
2013-02-09 03:50:00,32.5,29.6,30.20,ESE,105,2.0,3.0,89,0.00,,,0.00,LWC V1.12 B30,2013-02-09 02:50:00,
2013-02-09 03:55:00,32.5,29.6,30.20,ESE,109,2.0,4.0,89,0.00,,,0.00,LWC V1.12 B30,2013-02-09 02:55:00,
2013-02-09 04:00:00,32.4,29.2,30.20,ESE,109,3.0,4.0,88,0.00,,,0.00,LWC V1.12 B30,2013-02-09 03:00:00,
2013-02-09 04:05:00,32.4,29.2,30.20,ESE,105,1.0,3.0,88,0.00,,,0.00,LWC V1.12 B30,2013-02-09 03:05:00,
2013-02-09 04:10:00,32.4,29.0,30.21,ESE,105,0.0,2.0,87,0.00,,,0.00,LWC V1.12 B30,2013-02-09 03:10:00,
2013-02-09 04:15:00,32.3,28.9,30.21,ESE,105,0.0,1.0,87,0.00,,,0.00,LWC V1.12 B30,2013-02-09 03:15:00,
2013-02-09 04:20:00,32.2,28.5,30.21,ESE,105,0.0,1.0,86,0.00,,,0.00,LWC V1.12 B30,2013-02-09 03:20:00,
2013-02-09 04:25:00,32.0,28.0,30.21,ESE,104,0.0,1.0,85,0.00,,,0.00,LWC V1.12 B30,2013-02-09 03:25:00,
2013-02-09 04:30:00,32.0,27.7,30.21,East,99,1.0,2.0,84,0.00,,,0.00,LWC V1.12 B30,2013-02-09 03:30:00,
2013-02-09 04:35:00,31.9,27.3,30.21,ESE,107,3.0,4.0,83,0.00,,,0.00,LWC V1.12 B30,2013-02-09 03:35:00,
2013-02-09 04:40:00,31.9,27.0,30.21,ESE,108,1.0,2.0,82,0.00,,,0.00,LWC V1.12 B30,2013-02-09 03:40:00,
2013-02-09 04:45:00,32.1,26.9,30.21,ESE,107,0.0,1.0,81,0.00,,,0.00,LWC V1.12 B30,2013-02-09 03:45:00,
2013-02-09 04:50:00,32.0,26.5,30.21,ESE,107,0.0,2.0,80,0.00,,,0.00,LWC V1.12 B30,2013-02-09 03:50:00,
2013-02-09 04:55:00,32.0,26.5,30.21,ESE,107,0.0,2.0,80,0.00,,,0.00,LWC V1.12 B30,2013-02-09 03:55:00,
2013-02-09 05:00:00,32.0,26.5,30.21,ESE,106,1.0,2.0,80,0.00,,,0.00,LWC V1.12 B30,2013-02-09 04:00:00,
2013-02-09 05:05:00,31.9,26.4,30.21,ESE,107,1.0,3.0,80,0.00,,,0.00,LWC V1.12 B30,2013-02-09 04:05:00,
2013-02-09 05:10:00,32.0,25.9,30.21,ESE,107,1.0,2.0,78,0.00,,,0.00,LWC V1.12 B30,2013-02-09 04:10:00,
2013-02-09 05:15:00,32.1,25.7,30.21,ESE,106,2.0,2.0,77,0.00,,,0.00,LWC V1.12 B30,2013-02-09 04:15:00,
2013-02-09 05:20:00,32.2,25.5,30.21,ESE,107,2.0,3.0,76,0.00,,,0.00,LWC V1.12 B30,2013-02-09 04:20:00,
2013-02-09 05:25:00,32.2,25.5,30.21,ESE,107,0.0,1.0,76,0.00,,,0.00,LWC V1.12 B30,2013-02-09 04:25:00,
2013-02-09 05:30:00,32.2,25.5,30.21,ESE,102,2.0,2.0,76,0.00,,,0.00,LWC V1.12 B30,2013-02-09 04:30:00,
2013-02-09 05:35:00,32.0,25.0,30.21,East,90,1.0,3.0,75,0.00,,,0.00,LWC V1.12 B30,2013-02-09 04:35:00,
2013-02-09 05:40:00,32.0,25.0,30.21,East,79,1.0,3.0,75,0.00,,,0.00,LWC V1.12 B30,2013-02-09 04:40:00,
2013-02-09 05:45:00,32.0,25.0,30.21,ENE,71,1.0,3.0,75,0.00,,,0.00,LWC V1.12 B30,2013-02-09 04:45:00,
2013-02-09 05:50:00,32.0,24.7,30.21,ENE,67,1.0,3.0,74,0.00,,,0.00,LWC V1.12 B30,2013-02-09 04:50:00,
2013-02-09 05:55:00,32.1,24.4,30.21,NE,55,1.0,2.0,73,0.00,,,0.00,LWC V1.12 B30,2013-02-09 04:55:00,
2013-02-09 06:00:00,32.1,24.4,30.21,NE,36,2.0,4.0,73,0.00,,,0.00,LWC V1.12 B30,2013-02-09 05:00:00,
2013-02-09 06:01:00,32.2,24.2,30.21,NNE,30,3.0,4.0,72,0.00,,,0.00,LWC V1.12 B30,2013-02-09 05:01:00,
2013-02-09 06:02:00,32.2,24.2,30.21,NNE,30,2.0,4.0,72,0.00,,,0.00,LWC V1.12 B30,2013-02-09 05:02:00,
2013-02-09 06:04:00,32.2,24.2,30.22,NNE,18,5.0,6.0,72,0.00,,,0.00,LWC V1.12 B30,2013-02-09 05:04:00,
2013-02-09 06:09:00,32.4,23.7,30.22,NNE,13,5.0,6.0,70,0.00,,,0.00,LWC V1.12 B30,2013-02-09 05:09:00,
2013-02-09 06:14:00,32.5,23.8,30.22,NNE,24,2.0,5.0,70,0.00,,,0.00,LWC V1.12 B30,2013-02-09 05:14:00,
2013-02-09 06:19:00,32.6,23.6,30.22,North,5,3.0,4.0,69,0.00,,,0.00,LWC V1.12 B30,2013-02-09 05:19:00,
2013-02-09 06:24:00,32.6,23.6,30.22,NNE,18,2.0,3.0,69,0.00,,,0.00,LWC V1.12 B30,2013-02-09 05:24:00,
2013-02-09 06:29:00,32.5,23.5,30.22,NNE,18,1.0,1.0,69,0.00,,,0.00,LWC V1.12 B30,2013-02-09 05:29:00,
2013-02-09 06:33:00,32.5,23.5,30.23,NNE,19,1.0,2.0,69,0.00,,,0.00,LWC V1.12 B30,2013-02-09 05:33:00,
2013-02-09 06:38:00,32.4,23.0,30.23,NNE,30,2.0,5.0,68,0.00,,,0.00,LWC V1.12 B30,2013-02-09 05:38:00,
2013-02-09 06:43:00,32.3,22.9,30.23,NE,35,3.0,4.0,68,0.00,,,0.00,LWC V1.12 B30,2013-02-09 05:43:00,
2013-02-09 06:48:00,32.3,22.9,30.23,NNE,32,1.0,5.0,68,0.00,,,0.00,LWC V1.12 B30,2013-02-09 05:48:00,
2013-02-09 06:53:00,32.3,22.9,30.23,NNE,19,1.0,5.0,68,0.00,,,0.00,LWC V1.12 B30,2013-02-09 05:53:00,
2013-02-09 06:58:00,32.3,22.6,30.23,NE,48,5.0,5.0,67,0.00,,,0.00,LWC V1.12 B30,2013-02-09 05:58:00,
2013-02-09 07:03:00,32.3,22.6,30.23,NNE,21,2.0,3.0,67,0.00,,,0.00,LWC V1.12 B30,2013-02-09 06:03:00,
2013-02-09 07:08:00,32.3,22.9,30.23,NNE,17,2.0,3.0,68,0.00,,,0.00,LWC V1.12 B30,2013-02-09 06:08:00,
2013-02-09 07:13:00,32.1,23.1,30.23,NNE,12,0.0,2.0,69,0.00,,,0.00,LWC V1.12 B30,2013-02-09 06:13:00,
2013-02-09 07:18:00,31.9,22.9,30.23,NNE,12,0.0,2.0,69,0.00,,,0.00,LWC V1.12 B30,2013-02-09 06:18:00,
2013-02-09 07:23:00,31.6,22.6,30.23,NNE,17,0.0,3.0,69,0.00,,,0.00,LWC V1.12 B30,2013-02-09 06:23:00,
2013-02-09 07:28:00,31.6,22.3,30.23,NNE,22,1.0,4.0,68,0.00,,,0.00,LWC V1.12 B30,2013-02-09 06:28:00,
2013-02-09 07:33:00,31.6,22.3,30.23,NNE,29,1.0,2.0,68,0.00,,,0.00,LWC V1.12 B30,2013-02-09 06:33:00,
2013-02-09 07:38:00,31.7,22.4,30.24,NNE,22,2.0,3.0,68,0.00,,,0.00,LWC V1.12 B30,2013-02-09 06:38:00,
2013-02-09 07:43:00,31.8,22.1,30.24,NE,41,4.0,5.0,67,0.00,,,0.00,LWC V1.12 B30,2013-02-09 06:43:00,
2013-02-09 07:48:00,32.0,22.3,30.24,NNE,26,3.0,4.0,67,0.00,,,0.00,LWC V1.12 B30,2013-02-09 06:48:00,
2013-02-09 07:53:00,32.0,22.3,30.24,NNE,30,1.0,2.0,67,0.00,,,0.00,LWC V1.12 B30,2013-02-09 06:53:00,
2013-02-09 07:58:00,32.1,22.4,30.24,NNE,29,2.0,3.0,67,0.00,,,0.00,LWC V1.12 B30,2013-02-09 06:58:00,
2013-02-09 08:03:00,32.1,22.0,30.24,NNE,22,0.0,3.0,66,0.00,,,0.00,LWC V1.12 B30,2013-02-09 07:03:00,
2013-02-09 08:08:00,32.1,22.0,30.24,NNE,24,1.0,2.0,66,0.00,,,0.00,LWC V1.12 B30,2013-02-09 07:08:00,
2013-02-09 08:13:00,32.2,22.1,30.24,ENE,65,0.0,5.0,66,0.00,,,0.00,LWC V1.12 B30,2013-02-09 07:13:00,
2013-02-09 08:18:00,32.3,22.2,30.24,ENE,65,0.0,1.0,66,0.00,,,0.00,LWC V1.12 B30,2013-02-09 07:18:00,
2013-02-09 08:23:00,32.3,22.2,30.25,ENE,65,0.0,3.0,66,0.00,,,0.00,LWC V1.12 B30,2013-02-09 07:23:00,
2013-02-09 08:28:00,32.3,22.2,30.25,ENE,65,0.0,0.0,66,0.00,,,0.00,LWC V1.12 B30,2013-02-09 07:28:00,
2013-02-09 08:33:00,32.3,22.2,30.25,ENE,64,0.0,2.0,66,0.00,,,0.00,LWC V1.12 B30,2013-02-09 07:33:00,
2013-02-09 08:38:00,32.3,22.2,30.25,ENE,61,3.0,3.0,66,0.00,,,0.00,LWC V1.12 B30,2013-02-09 07:38:00,
2013-02-09 08:43:00,32.3,22.2,30.25,ENE,60,1.0,1.0,66,0.00,,,0.00,LWC V1.12 B30,2013-02-09 07:43:00,
2013-02-09 08:48:00,32.3,22.2,30.25,NE,54,1.0,2.0,66,0.00,,,0.00,LWC V1.12 B30,2013-02-09 07:48:00,
2013-02-09 08:53:00,32.3,22.2,30.25,NNE,33,0.0,1.0,66,0.00,,,0.00,LWC V1.12 B30,2013-02-09 07:53:00,
2013-02-09 08:58:00,32.4,22.3,30.25,NNE,26,1.0,4.0,66,0.00,,,0.00,LWC V1.12 B30,2013-02-09 07:58:00,
2013-02-09 09:03:00,32.4,22.3,30.25,NNE,26,0.0,1.0,66,0.00,,,0.00,LWC V1.12 B30,2013-02-09 08:03:00,
2013-02-09 09:08:00,32.5,22.1,30.25,NNE,28,1.0,2.0,65,0.00,,,0.00,LWC V1.12 B30,2013-02-09 08:08:00,
2013-02-09 09:13:00,32.6,22.5,30.25,NNE,24,2.0,2.0,66,0.00,,,0.00,LWC V1.12 B30,2013-02-09 08:13:00,
2013-02-09 09:18:00,32.7,22.3,30.26,NNE,28,1.0,2.0,65,0.00,,,0.00,LWC V1.12 B30,2013-02-09 08:18:00,
2013-02-09 09:23:00,32.9,22.4,30.26,NNE,29,3.0,4.0,65,0.00,,,0.00,LWC V1.12 B30,2013-02-09 08:23:00,
2013-02-09 09:28:00,33.1,22.3,30.26,NNE,18,1.0,4.0,64,0.00,,,0.00,LWC V1.12 B30,2013-02-09 08:28:00,
2013-02-09 09:33:00,33.3,22.8,30.26,North,5,2.0,4.0,65,0.00,,,0.00,LWC V1.12 B30,2013-02-09 08:33:00,
2013-02-09 09:38:00,33.5,23.0,30.26,North,9,2.0,3.0,65,0.00,,,0.00,LWC V1.12 B30,2013-02-09 08:38:00,
2013-02-09 09:43:00,33.8,22.9,30.26,NNE,15,2.0,4.0,64,0.00,,,0.00,LWC V1.12 B30,2013-02-09 08:43:00,
2013-02-09 09:48:00,34.0,23.1,30.26,North,355,6.0,6.0,64,0.00,,,0.00,LWC V1.12 B30,2013-02-09 08:48:00,
2013-02-09 09:53:00,34.3,23.4,30.26,NNE,15,8.0,10.0,64,0.00,,,0.00,LWC V1.12 B30,2013-02-09 08:53:00,
2013-02-09 09:58:00,34.1,23.6,30.26,NW,322,5.0,10.0,65,0.00,,,0.00,LWC V1.12 B30,2013-02-09 08:58:00,
2013-02-09 10:03:00,33.9,23.0,30.26,NNW,338,4.0,6.0,64,0.00,,,0.00,LWC V1.12 B30,2013-02-09 09:03:00,
2013-02-09 10:08:00,33.7,23.6,30.27,NNW,329,1.0,6.0,66,0.00,,,0.00,LWC V1.12 B30,2013-02-09 09:08:00,
2013-02-09 10:13:00,33.8,24.0,30.27,North,355,2.0,10.0,67,0.00,,,0.00,LWC V1.12 B30,2013-02-09 09:13:00,
2013-02-09 10:18:00,33.8,24.4,30.27,NNW,343,2.0,6.0,68,0.00,,,0.00,LWC V1.12 B30,2013-02-09 09:18:00,
2013-02-09 10:23:00,34.0,24.6,30.27,North,350,1.0,4.0,68,0.00,,,0.00,LWC V1.12 B30,2013-02-09 09:23:00,
2013-02-09 10:28:00,34.1,24.7,30.27,North,350,3.0,7.0,68,0.00,,,0.00,LWC V1.12 B30,2013-02-09 09:28:00,
2013-02-09 10:33:00,34.6,25.5,30.27,North,350,4.0,7.0,69,0.00,,,0.00,LWC V1.12 B30,2013-02-09 09:33:00,
2013-02-09 10:38:00,35.0,25.2,30.27,NNW,342,5.0,11.0,67,0.00,,,0.00,LWC V1.12 B30,2013-02-09 09:38:00,
2013-02-09 10:43:00,35.3,25.5,30.27,NNW,342,3.0,3.0,67,0.00,,,0.00,LWC V1.12 B30,2013-02-09 09:43:00,
2013-02-09 10:48:00,35.7,25.5,30.27,WNW,302,4.0,10.0,66,0.00,,,0.00,LWC V1.12 B30,2013-02-09 09:48:00,
2013-02-09 10:53:00,35.9,26.0,30.27,NNW,331,1.0,7.0,67,0.00,,,0.00,LWC V1.12 B30,2013-02-09 09:53:00,
2013-02-09 10:58:00,36.2,26.3,30.27,NW,321,2.0,7.0,67,0.00,,,0.00,LWC V1.12 B30,2013-02-09 09:58:00,
2013-02-09 11:03:00,36.7,26.1,30.28,NNW,330,1.0,6.0,65,0.00,,,0.00,LWC V1.12 B30,2013-02-09 10:03:00,
2013-02-09 11:08:00,37.1,26.8,30.28,WNW,302,3.0,7.0,66,0.00,,,0.00,LWC V1.12 B30,2013-02-09 10:08:00,
2013-02-09 11:13:00,37.4,26.4,30.28,North,355,1.0,7.0,64,0.00,,,0.00,LWC V1.12 B30,2013-02-09 10:13:00,
2013-02-09 11:18:00,37.8,27.1,30.28,NW,318,5.0,7.0,65,0.00,,,0.00,LWC V1.12 B30,2013-02-09 10:18:00,
2013-02-09 11:23:00,38.0,26.9,30.28,NNW,348,2.0,6.0,64,0.00,,,0.00,LWC V1.12 B30,2013-02-09 10:23:00,
2013-02-09 11:28:00,38.0,26.9,30.28,West,277,1.0,10.0,64,0.00,,,0.00,LWC V1.12 B30,2013-02-09 10:28:00,
2013-02-09 11:33:00,38.3,27.6,30.28,NNW,333,1.0,5.0,65,0.00,,,0.00,LWC V1.12 B30,2013-02-09 10:33:00,
2013-02-09 11:37:00,38.5,27.0,30.27,NW,326,1.0,3.0,63,0.00,,,0.00,LWC V1.12 B30,2013-02-09 10:37:00,
2013-02-09 11:42:00,39.0,27.9,30.28,WNW,283,1.0,3.0,64,0.00,,,0.00,LWC V1.12 B30,2013-02-09 10:42:00,
2013-02-09 11:47:00,39.4,27.1,30.27,North,355,2.0,3.0,61,0.00,,,0.00,LWC V1.12 B30,2013-02-09 10:47:00,
2013-02-09 11:52:00,39.4,26.7,30.27,WNW,298,1.0,4.0,60,0.00,,,0.00,LWC V1.12 B30,2013-02-09 10:52:00,
2013-02-09 11:57:00,39.8,26.7,30.27,WNW,286,3.0,7.0,59,0.00,,,0.00,LWC V1.12 B30,2013-02-09 10:57:00,
2013-02-09 12:02:00,40.1,26.9,30.27,WNW,299,6.0,11.0,59,0.00,,,0.00,LWC V1.12 B30,2013-02-09 11:02:00,
2013-02-09 12:07:00,40.1,25.7,30.27,WNW,293,7.0,10.0,56,0.00,,,0.00,LWC V1.12 B30,2013-02-09 11:07:00,
2013-02-09 12:12:00,40.2,25.8,30.27,West,281,3.0,3.0,56,0.00,,,0.00,LWC V1.12 B30,2013-02-09 11:12:00,
2013-02-09 12:17:00,40.3,24.5,30.27,NNW,342,1.0,9.0,53,0.00,,,0.00,LWC V1.12 B30,2013-02-09 11:17:00,
2013-02-09 12:22:00,40.7,25.4,30.27,WNW,295,3.0,6.0,54,0.00,,,0.00,LWC V1.12 B30,2013-02-09 11:22:00,
2013-02-09 12:27:00,40.9,25.1,30.26,SSE,164,1.0,3.0,53,0.00,,,0.00,LWC V1.12 B30,2013-02-09 11:27:00,
2013-02-09 12:32:00,41.1,24.4,30.26,West,274,4.0,5.0,51,0.00,,,0.00,LWC V1.12 B30,2013-02-09 11:32:00,
2013-02-09 12:37:00,41.3,25.5,30.26,West,271,2.0,6.0,53,0.00,,,0.00,LWC V1.12 B30,2013-02-09 11:37:00,
2013-02-09 12:42:00,41.5,24.7,30.26,NNW,346,0.0,7.0,51,0.00,,,0.00,LWC V1.12 B30,2013-02-09 11:42:00,
2013-02-09 12:47:00,41.5,24.7,30.26,West,268,6.0,7.0,51,0.00,,,0.00,LWC V1.12 B30,2013-02-09 11:47:00,
2013-02-09 12:52:00,41.5,24.7,30.26,NW,318,6.0,9.0,51,0.00,,,0.00,LWC V1.12 B30,2013-02-09 11:52:00,
2013-02-09 12:57:00,41.6,24.4,30.26,NW,317,5.0,14.0,50,0.00,,,0.00,LWC V1.12 B30,2013-02-09 11:57:00,
2013-02-09 13:02:00,41.6,24.4,30.26,West,273,1.0,5.0,50,0.00,,,0.00,LWC V1.12 B30,2013-02-09 12:02:00,
2013-02-09 13:07:00,41.5,24.7,30.26,West,280,3.0,3.0,51,0.00,,,0.00,LWC V1.12 B30,2013-02-09 12:07:00,
2013-02-09 13:12:00,41.7,24.0,30.27,WSW,241,1.0,3.0,49,0.00,,,0.00,LWC V1.12 B30,2013-02-09 12:12:00,
2013-02-09 13:17:00,42.0,24.2,30.26,WNW,283,4.0,11.0,49,0.00,,,0.00,LWC V1.12 B30,2013-02-09 12:17:00,
2013-02-09 13:22:00,42.0,23.8,30.27,WSW,256,1.0,3.0,48,0.00,,,0.00,LWC V1.12 B30,2013-02-09 12:22:00,
2013-02-09 13:27:00,42.0,23.8,30.26,West,263,5.0,9.0,48,0.00,,,0.00,LWC V1.12 B30,2013-02-09 12:27:00,
2013-02-09 13:32:00,42.0,23.2,30.26,WNW,288,3.0,5.0,47,0.00,,,0.00,LWC V1.12 B30,2013-02-09 12:32:00,
2013-02-09 13:37:00,42.2,23.4,30.26,WNW,291,0.0,5.0,47,0.00,,,0.00,LWC V1.12 B30,2013-02-09 12:37:00,
2013-02-09 13:42:00,42.5,24.7,30.26,NW,313,3.0,4.0,49,0.00,,,0.00,LWC V1.12 B30,2013-02-09 12:42:00,
2013-02-09 13:47:00,42.8,24.0,30.26,WNW,303,5.0,10.0,47,0.00,,,0.00,LWC V1.12 B30,2013-02-09 12:47:00,
2013-02-09 13:52:00,42.5,24.2,30.26,West,273,2.0,10.0,48,0.00,,,0.00,LWC V1.12 B30,2013-02-09 12:52:00,
2013-02-09 13:57:00,42.1,24.3,30.26,NW,308,4.0,16.0,49,0.00,,,0.00,LWC V1.12 B30,2013-02-09 12:57:00,
2013-02-09 14:02:00,41.9,24.1,30.25,West,271,9.0,11.0,49,0.00,,,0.00,LWC V1.12 B30,2013-02-09 13:02:00,
2013-02-09 14:07:00,41.7,24.0,30.26,WNW,287,6.0,11.0,49,0.00,,,0.00,LWC V1.12 B30,2013-02-09 13:07:00,
2013-02-09 14:12:00,41.6,23.9,30.25,WNW,295,10.0,11.0,49,0.00,,,0.00,LWC V1.12 B30,2013-02-09 13:12:00,
2013-02-09 14:17:00,41.6,23.9,30.25,West,268,13.0,14.0,49,0.00,,,0.00,LWC V1.12 B30,2013-02-09 13:17:00,
2013-02-09 14:22:00,41.5,24.3,30.25,WNW,282,5.0,12.0,50,0.00,,,0.00,LWC V1.12 B30,2013-02-09 13:22:00,
2013-02-09 14:27:00,41.5,24.3,30.25,NW,306,5.0,14.0,50,0.00,,,0.00,LWC V1.12 B30,2013-02-09 13:27:00,
2013-02-09 14:32:00,41.4,24.2,30.25,WSW,257,5.0,11.0,50,0.00,,,0.00,LWC V1.12 B30,2013-02-09 13:32:00,
2013-02-09 14:37:00,41.4,24.6,30.26,SW,221,4.0,9.0,51,0.00,,,0.00,LWC V1.12 B30,2013-02-09 13:37:00,
2013-02-09 14:42:00,41.5,24.7,30.25,West,279,10.0,14.0,51,0.00,,,0.00,LWC V1.12 B30,2013-02-09 13:42:00,
2013-02-09 14:47:00,41.2,25.4,30.26,West,277,7.0,17.0,53,0.00,,,0.00,LWC V1.12 B30,2013-02-09 13:47:00,
2013-02-09 14:52:00,41.0,25.2,30.26,WNW,288,4.0,13.0,53,0.00,,,0.00,LWC V1.12 B30,2013-02-09 13:52:00,
2013-02-09 14:57:00,40.9,26.0,30.26,West,261,5.0,7.0,55,0.00,,,0.00,LWC V1.12 B30,2013-02-09 13:57:00,
2013-02-09 15:02:00,41.0,26.1,30.26,WNW,302,2.0,14.0,55,0.00,,,0.00,LWC V1.12 B30,2013-02-09 14:02:00,
2013-02-09 15:07:00,40.9,25.6,30.26,WNW,284,3.0,13.0,54,0.00,,,0.00,LWC V1.12 B30,2013-02-09 14:07:00,
2013-02-09 15:12:00,40.8,25.5,30.26,NNW,340,6.0,14.0,54,0.00,,,0.00,LWC V1.12 B30,2013-02-09 14:12:00,
2013-02-09 15:17:00,40.6,24.8,30.26,WNW,296,5.0,12.0,53,0.00,,,0.00,LWC V1.12 B30,2013-02-09 14:17:00,
2013-02-09 15:22:00,40.5,25.2,30.26,WNW,294,7.0,14.0,54,0.00,,,0.00,LWC V1.12 B30,2013-02-09 14:22:00,
2013-02-09 15:27:00,40.6,25.3,30.26,WNW,302,4.0,9.0,54,0.00,,,0.00,LWC V1.12 B30,2013-02-09 14:27:00,
2013-02-09 15:32:00,40.6,24.8,30.26,WNW,287,5.0,11.0,53,0.00,,,0.00,LWC V1.12 B30,2013-02-09 14:32:00,
2013-02-09 15:37:00,40.6,24.8,30.26,WNW,288,4.0,11.0,53,0.00,,,0.00,LWC V1.12 B30,2013-02-09 14:37:00,
2013-02-09 15:42:00,40.7,24.5,30.26,West,267,4.0,11.0,52,0.00,,,0.00,LWC V1.12 B30,2013-02-09 14:42:00,
2013-02-09 15:47:00,40.8,24.1,30.26,West,271,9.0,12.0,51,0.00,,,0.00,LWC V1.12 B30,2013-02-09 14:47:00,
2013-02-09 15:52:00,40.7,24.0,30.27,West,281,3.0,7.0,51,0.00,,,0.00,LWC V1.12 B30,2013-02-09 14:52:00,
2013-02-09 15:57:00,40.7,24.0,30.26,NW,309,2.0,10.0,51,0.00,,,0.00,LWC V1.12 B30,2013-02-09 14:57:00,
2013-02-09 16:02:00,40.5,23.8,30.26,West,281,10.0,12.0,51,0.00,,,0.00,LWC V1.12 B30,2013-02-09 15:02:00,
2013-02-09 16:07:00,40.2,24.0,30.27,WNW,291,11.0,11.0,52,0.00,,,0.00,LWC V1.12 B30,2013-02-09 15:07:00,
2013-02-09 16:12:00,40.0,23.8,30.27,NW,304,7.0,13.0,52,0.00,,,0.00,LWC V1.12 B30,2013-02-09 15:12:00,
2013-02-09 16:17:00,39.9,24.2,30.26,WNW,288,5.0,9.0,53,0.00,,,0.00,LWC V1.12 B30,2013-02-09 15:17:00,
2013-02-09 16:22:00,39.9,24.2,30.26,WNW,294,4.0,12.0,53,0.00,,,0.00,LWC V1.12 B30,2013-02-09 15:22:00,
2013-02-09 16:27:00,39.8,23.6,30.27,West,277,2.0,10.0,52,0.00,,,0.00,LWC V1.12 B30,2013-02-09 15:27:00,
2013-02-09 16:32:00,39.6,23.9,30.27,WNW,294,12.0,16.0,53,0.00,,,0.00,LWC V1.12 B30,2013-02-09 15:32:00,
2013-02-09 16:37:00,39.4,23.7,30.27,WNW,285,3.0,9.0,53,0.00,,,0.00,LWC V1.12 B30,2013-02-09 15:37:00,
2013-02-09 16:41:00,39.2,23.5,30.27,WNW,282,4.0,13.0,53,0.00,,,0.00,LWC V1.12 B30,2013-02-09 15:41:00,
2013-02-09 16:46:00,38.9,22.8,30.27,WNW,295,3.0,3.0,52,0.00,,,0.00,LWC V1.12 B30,2013-02-09 15:46:00,
2013-02-09 16:51:00,38.7,22.6,30.27,West,276,3.0,9.0,52,0.00,,,0.00,LWC V1.12 B30,2013-02-09 15:51:00,
2013-02-09 16:56:00,38.5,22.4,30.27,WNW,290,5.0,10.0,52,0.00,,,0.00,LWC V1.12 B30,2013-02-09 15:56:00,
2013-02-09 17:01:00,38.3,22.2,30.27,West,274,10.0,11.0,52,0.00,,,0.00,LWC V1.12 B30,2013-02-09 16:01:00,
2013-02-09 17:06:00,38.0,22.0,30.27,West,272,2.0,9.0,52,0.00,,,0.00,LWC V1.12 B30,2013-02-09 16:06:00,
2013-02-09 17:11:00,37.8,22.2,30.28,WNW,296,0.0,1.0,53,0.00,,,0.00,LWC V1.12 B30,2013-02-09 16:11:00,
2013-02-09 17:16:00,37.6,22.0,30.28,West,277,1.0,8.0,53,0.00,,,0.00,LWC V1.12 B30,2013-02-09 16:16:00,
2013-02-09 17:21:00,37.4,21.9,30.28,West,269,0.0,2.0,53,0.00,,,0.00,LWC V1.12 B30,2013-02-09 16:21:00,
2013-02-09 17:26:00,37.1,21.6,30.28,West,277,2.0,6.0,53,0.00,,,0.00,LWC V1.12 B30,2013-02-09 16:26:00,
2013-02-09 17:31:00,36.8,21.7,30.28,West,273,0.0,2.0,54,0.00,,,0.00,LWC V1.12 B30,2013-02-09 16:31:00,
2013-02-09 17:36:00,36.6,22.0,30.28,West,269,1.0,1.0,55,0.00,,,0.00,LWC V1.12 B30,2013-02-09 16:36:00,
2013-02-09 17:41:00,36.4,21.8,30.28,West,260,1.0,2.0,55,0.00,,,0.00,LWC V1.12 B30,2013-02-09 16:41:00,
2013-02-09 17:46:00,35.9,21.8,30.28,WSW,242,2.0,3.0,56,0.00,,,0.00,LWC V1.12 B30,2013-02-09 16:46:00,
2013-02-09 17:51:00,35.6,21.9,30.28,SSW,212,0.0,4.0,57,0.00,,,0.00,LWC V1.12 B30,2013-02-09 16:51:00,
2013-02-09 17:56:00,35.3,21.6,30.29,SSW,211,1.0,2.0,57,0.00,,,0.00,LWC V1.12 B30,2013-02-09 16:56:00,
2013-02-09 18:01:00,35.1,21.8,30.29,SSW,212,0.0,2.0,58,0.00,,,0.00,LWC V1.12 B30,2013-02-09 17:01:00,
2013-02-09 18:06:00,34.9,21.6,30.29,SSW,213,0.0,1.0,58,0.00,,,0.00,LWC V1.12 B30,2013-02-09 17:06:00,
2013-02-09 18:11:00,34.7,21.5,30.29,SW,221,2.0,3.0,58,0.00,,,0.00,LWC V1.12 B30,2013-02-09 17:11:00,
2013-02-09 18:16:00,34.3,21.1,30.30,SSW,201,0.0,1.0,58,0.00,,,0.00,LWC V1.12 B30,2013-02-09 17:16:00,
2013-02-09 18:21:00,34.3,21.5,30.29,SSW,201,1.0,2.0,59,0.00,,,0.00,LWC V1.12 B30,2013-02-09 17:21:00,
2013-02-09 18:27:00,34.1,21.3,30.29,SSW,210,1.0,2.0,59,0.00,,,0.00,LWC V1.12 B30,2013-02-09 17:27:00,
2013-02-09 18:32:00,33.9,21.5,30.30,SSW,210,0.0,1.0,60,0.00,,,0.00,LWC V1.12 B30,2013-02-09 17:32:00,
2013-02-09 18:37:00,33.7,21.3,30.30,SSW,210,0.0,1.0,60,0.00,,,0.00,LWC V1.12 B30,2013-02-09 17:37:00,
2013-02-09 18:42:00,33.6,21.6,30.30,SSW,202,3.0,3.0,61,0.00,,,0.00,LWC V1.12 B30,2013-02-09 17:42:00,
2013-02-09 18:47:00,33.4,21.4,30.30,SSW,202,1.0,1.0,61,0.00,,,0.00,LWC V1.12 B30,2013-02-09 17:47:00,
2013-02-09 18:52:00,33.3,21.3,30.30,SSW,202,0.0,1.0,61,0.00,,,0.00,LWC V1.12 B30,2013-02-09 17:52:00,
2013-02-09 18:57:00,33.1,21.5,30.30,SSW,202,0.0,2.0,62,0.00,,,0.00,LWC V1.12 B30,2013-02-09 17:57:00,
2013-02-09 19:02:00,32.9,21.3,30.30,SSW,202,0.0,1.0,62,0.00,,,0.00,LWC V1.12 B30,2013-02-09 18:02:00,
2013-02-09 19:07:00,32.8,21.2,30.30,SSW,202,0.0,1.0,62,0.00,,,0.00,LWC V1.12 B30,2013-02-09 18:07:00,
2013-02-09 19:12:00,32.7,21.1,30.30,SSW,202,0.0,1.0,62,0.00,,,0.00,LWC V1.12 B30,2013-02-09 18:12:00,
2013-02-09 19:17:00,32.6,21.0,30.31,SSW,202,0.0,1.0,62,0.00,,,0.00,LWC V1.12 B30,2013-02-09 18:17:00,
2013-02-09 19:21:00,32.5,21.3,30.30,SSW,198,1.0,3.0,63,0.00,,,0.00,LWC V1.12 B30,2013-02-09 18:21:00,
2013-02-09 19:26:00,32.4,21.2,30.31,SSW,198,0.0,0.0,63,0.00,,,0.00,LWC V1.12 B30,2013-02-09 18:26:00,
2013-02-09 19:31:00,32.3,21.1,30.31,SSW,197,1.0,2.0,63,0.00,,,0.00,LWC V1.12 B30,2013-02-09 18:31:00,
2013-02-09 19:36:00,32.2,21.0,30.31,South,179,3.0,3.0,63,0.00,,,0.00,LWC V1.12 B30,2013-02-09 18:36:00,
2013-02-09 19:41:00,32.2,21.0,30.31,South,170,0.0,2.0,63,0.00,,,0.00,LWC V1.12 B30,2013-02-09 18:41:00,
2013-02-09 19:46:00,32.1,20.9,30.31,SSE,164,0.0,1.0,63,0.00,,,0.00,LWC V1.12 B30,2013-02-09 18:46:00,
2013-02-09 19:51:00,32.1,20.9,30.31,SSE,163,0.0,3.0,63,0.00,,,0.00,LWC V1.12 B30,2013-02-09 18:51:00,
2013-02-09 19:56:00,32.0,20.9,30.31,SSE,160,2.0,2.0,63,0.00,,,0.00,LWC V1.12 B30,2013-02-09 18:56:00,
2013-02-09 20:01:00,31.9,20.8,30.31,SSW,195,2.0,2.0,63,0.00,,,0.00,LWC V1.12 B30,2013-02-09 19:01:00,
2013-02-09 20:06:00,31.8,20.7,30.31,SSE,165,1.0,4.0,63,0.00,,,0.00,LWC V1.12 B30,2013-02-09 19:06:00,
2013-02-09 20:11:00,31.8,21.0,30.31,SSE,153,1.0,2.0,64,0.00,,,0.00,LWC V1.12 B30,2013-02-09 19:11:00,
2013-02-09 20:16:00,31.7,20.9,30.31,SSE,148,0.0,1.0,64,0.00,,,0.00,LWC V1.12 B30,2013-02-09 19:16:00,
2013-02-09 20:21:00,31.6,20.8,30.31,SE,134,1.0,2.0,64,0.00,,,0.00,LWC V1.12 B30,2013-02-09 19:21:00,
2013-02-09 20:26:00,31.5,20.7,30.31,East,81,2.0,4.0,64,0.00,,,0.00,LWC V1.12 B30,2013-02-09 19:26:00,
2013-02-09 20:31:00,31.5,20.7,30.31,ENE,69,1.0,3.0,64,0.00,,,0.00,LWC V1.12 B30,2013-02-09 19:31:00,
2013-02-09 20:36:00,31.4,20.7,30.31,NNE,26,2.0,2.0,64,0.00,,,0.00,LWC V1.12 B30,2013-02-09 19:36:00,
2013-02-09 20:41:00,31.4,20.7,30.31,NNE,22,1.0,2.0,64,0.00,,,0.00,LWC V1.12 B30,2013-02-09 19:41:00,
2013-02-09 20:46:00,31.3,20.6,30.31,NNE,14,3.0,4.0,64,0.00,,,0.00,LWC V1.12 B30,2013-02-09 19:46:00,
2013-02-09 20:51:00,31.2,20.5,30.31,NNE,26,1.0,4.0,64,0.00,,,0.00,LWC V1.12 B30,2013-02-09 19:51:00,
2013-02-09 20:56:00,31.2,20.5,30.31,NE,35,1.0,2.0,64,0.00,,,0.00,LWC V1.12 B30,2013-02-09 19:56:00,
2013-02-09 21:01:00,31.2,20.5,30.31,NE,40,0.0,2.0,64,0.00,,,0.00,LWC V1.12 B30,2013-02-09 20:01:00,
2013-02-09 21:06:00,31.2,20.5,30.31,NNE,33,2.0,3.0,64,0.00,,,0.00,LWC V1.12 B30,2013-02-09 20:06:00,
2013-02-09 21:11:00,31.1,20.4,30.31,North,5,1.0,5.0,64,0.00,,,0.00,LWC V1.12 B30,2013-02-09 20:11:00,
2013-02-09 21:16:00,31.0,20.6,30.31,NNW,344,3.0,6.0,65,0.00,,,0.00,LWC V1.12 B30,2013-02-09 20:16:00,
2013-02-09 21:21:00,30.9,20.5,30.31,North,355,2.0,4.0,65,0.00,,,0.00,LWC V1.12 B30,2013-02-09 20:21:00,
2013-02-09 21:26:00,30.8,20.4,30.31,NNW,346,3.0,4.0,65,0.00,,,0.00,LWC V1.12 B30,2013-02-09 20:26:00,
2013-02-09 21:31:00,30.7,20.4,30.31,North,349,5.0,6.0,65,0.00,,,0.00,LWC V1.12 B30,2013-02-09 20:31:00,
2013-02-09 21:36:00,30.7,20.4,30.31,NNW,345,3.0,7.0,65,0.00,,,0.00,LWC V1.12 B30,2013-02-09 20:36:00,
2013-02-09 21:41:00,30.8,20.1,30.31,North,355,4.0,6.0,64,0.00,,,0.00,LWC V1.12 B30,2013-02-09 20:41:00,
2013-02-09 21:46:00,30.8,20.1,30.31,NNW,345,5.0,6.0,64,0.00,,,0.00,LWC V1.12 B30,2013-02-09 20:46:00,
2013-02-09 21:51:00,30.8,20.1,30.31,North,350,5.0,6.0,64,0.00,,,0.00,LWC V1.12 B30,2013-02-09 20:51:00,
2013-02-09 21:56:00,30.7,20.4,30.31,NNW,346,4.0,6.0,65,0.00,,,0.00,LWC V1.12 B30,2013-02-09 20:56:00,
2013-02-09 22:01:00,30.6,20.3,30.31,North,349,3.0,5.0,65,0.00,,,0.00,LWC V1.12 B30,2013-02-09 21:01:00,
2013-02-09 22:06:00,30.4,20.1,30.31,NNW,343,3.0,4.0,65,0.00,,,0.00,LWC V1.12 B30,2013-02-09 21:06:00,
2013-02-09 22:11:00,30.3,20.0,30.31,North,355,4.0,5.0,65,0.00,,,0.00,LWC V1.12 B30,2013-02-09 21:11:00,
2013-02-09 22:16:00,30.4,20.1,30.31,NNW,346,5.0,9.0,65,0.00,,,0.00,LWC V1.12 B30,2013-02-09 21:16:00,
2013-02-09 22:21:00,30.3,20.3,30.31,NNW,344,5.0,7.0,66,0.00,,,0.00,LWC V1.12 B30,2013-02-09 21:21:00,
2013-02-09 22:26:00,30.3,20.3,30.31,NNW,345,4.0,6.0,66,0.00,,,0.00,LWC V1.12 B30,2013-02-09 21:26:00,
2013-02-09 22:31:00,30.2,20.2,30.31,NNW,348,4.0,5.0,66,0.00,,,0.00,LWC V1.12 B30,2013-02-09 21:31:00,
2013-02-09 22:36:00,30.1,20.1,30.31,North,349,2.0,3.0,66,0.00,,,0.00,LWC V1.12 B30,2013-02-09 21:36:00,
2013-02-09 22:41:00,30.1,20.1,30.31,NNW,348,4.0,6.0,66,0.00,,,0.00,LWC V1.12 B30,2013-02-09 21:41:00,
2013-02-09 22:46:00,30.1,20.1,30.31,NNW,346,4.0,5.0,66,0.00,,,0.00,LWC V1.12 B30,2013-02-09 21:46:00,
2013-02-09 22:51:00,30.0,20.0,30.31,NNW,347,3.0,5.0,66,0.00,,,0.00,LWC V1.12 B30,2013-02-09 21:51:00,
2013-02-09 22:56:00,30.0,20.0,30.31,NNW,348,2.0,3.0,66,0.00,,,0.00,LWC V1.12 B30,2013-02-09 21:56:00,
2013-02-09 23:01:00,29.8,19.9,30.31,North,349,0.0,1.0,66,0.00,,,0.00,LWC V1.12 B30,2013-02-09 22:01:00,
2013-02-09 23:06:00,29.7,20.1,30.31,North,349,0.0,1.0,67,0.00,,,0.00,LWC V1.12 B30,2013-02-09 22:06:00,
2013-02-09 23:11:00,29.5,19.9,30.31,North,349,0.0,0.0,67,0.00,,,0.00,LWC V1.12 B30,2013-02-09 22:11:00,
2013-02-09 23:16:00,29.3,19.7,30.31,North,349,1.0,1.0,67,0.00,,,0.00,LWC V1.12 B30,2013-02-09 22:16:00,
2013-02-09 23:21:00,29.0,19.4,30.31,North,349,0.0,1.0,67,0.00,,,0.00,LWC V1.12 B30,2013-02-09 22:21:00,
2013-02-09 23:26:00,28.7,19.5,30.31,North,349,1.0,1.0,68,0.00,,,0.00,LWC V1.12 B30,2013-02-09 22:26:00,
2013-02-09 23:31:00,28.7,19.5,30.31,North,349,2.0,2.0,68,0.00,,,0.00,LWC V1.12 B30,2013-02-09 22:31:00,
2013-02-09 23:36:00,29.2,19.6,30.31,North,0,1.0,2.0,67,0.00,,,0.00,LWC V1.12 B30,2013-02-09 22:36:00,
2013-02-09 23:41:00,29.7,20.1,30.31,North,0,2.0,2.0,67,0.00,,,0.00,LWC V1.12 B30,2013-02-09 22:41:00,
2013-02-09 23:46:00,30.1,20.1,30.31,North,0,0.0,1.0,66,0.00,,,0.00,LWC V1.12 B30,2013-02-09 22:46:00,
2013-02-09 23:51:00,30.5,20.5,30.31,NNE,19,1.0,2.0,66,0.00,,,0.00,LWC V1.12 B30,2013-02-09 22:51:00,
2013-02-09 23:56:00,31.1,20.7,30.31,NE,45,3.0,3.0,65,0.00,,,0.00,LWC V1.12 B30,2013-02-09 22:56:00,